createdAt,value
2022-08-14T00:00:59.187Z,1010.81
2022-08-14T00:01:59.324Z,1010.80
2022-08-14T00:02:59.159Z,1010.77
2022-08-14T00:03:59.137Z,1010.79
2022-08-14T00:04:59.129Z,1010.77
2022-08-14T00:06:00.197Z,1010.76
2022-08-14T00:06:59.115Z,1010.77
2022-08-14T00:07:59.094Z,1010.76
2022-08-14T00:08:59.574Z,1010.77
2022-08-14T00:10:49.129Z,1010.79
2022-08-14T00:11:00.056Z,1010.78
2022-08-14T00:11:59.094Z,1010.76
2022-08-14T00:12:59.168Z,1010.76
2022-08-14T00:13:59.048Z,1010.73
2022-08-14T00:14:59.082Z,1010.71
2022-08-14T00:15:59.009Z,1010.70
2022-08-14T00:16:59.046Z,1010.73
2022-08-14T00:17:58.991Z,1010.68
2022-08-14T00:19:06.113Z,1010.68
2022-08-14T00:19:59.967Z,1010.69
2022-08-14T00:20:59.038Z,1010.71
2022-08-14T00:21:59.002Z,1010.72
2022-08-14T00:22:58.945Z,1010.71
2022-08-14T00:24:01.708Z,1010.70
2022-08-14T00:24:58.988Z,1010.69
2022-08-14T00:26:06.698Z,1010.68
2022-08-14T00:27:02.092Z,1010.69
2022-08-14T00:27:58.903Z,1010.68
2022-08-14T00:28:58.888Z,1010.70
2022-08-14T00:29:58.937Z,1010.60
2022-08-14T00:30:58.867Z,1010.60
2022-08-14T00:31:58.872Z,1010.63
2022-08-14T00:32:58.887Z,1010.65
2022-08-14T00:33:58.913Z,1010.59
2022-08-14T00:34:59.848Z,1010.61
2022-08-14T00:36:37.264Z,1010.60
2022-08-14T00:36:59.805Z,1010.61
2022-08-14T00:37:58.795Z,1010.64
2022-08-14T00:38:58.812Z,1010.63
2022-08-14T00:39:58.816Z,1010.62
2022-08-14T00:40:58.758Z,1010.64
2022-08-14T00:41:58.799Z,1010.61
2022-08-14T00:42:58.774Z,1010.61
2022-08-14T00:43:58.726Z,1010.59
2022-08-14T00:44:58.757Z,1010.60
2022-08-14T00:45:58.718Z,1010.59
2022-08-14T00:46:58.938Z,1010.48
2022-08-14T00:47:59.816Z,1010.57
2022-08-14T00:48:58.685Z,1010.53
2022-08-14T00:49:58.694Z,1010.61
2022-08-14T00:50:58.689Z,1010.55
2022-08-14T00:51:58.643Z,1010.55
2022-08-14T00:52:58.643Z,1010.60
2022-08-14T00:53:58.627Z,1010.56
2022-08-14T00:54:58.655Z,1010.52
2022-08-14T00:55:58.604Z,1010.52
2022-08-14T00:56:58.598Z,1010.52
2022-08-14T00:57:58.573Z,1010.53
2022-08-14T00:58:58.585Z,1010.56
2022-08-14T00:59:58.541Z,1010.54
2022-08-14T01:00:58.635Z,1010.58
2022-08-14T01:01:58.723Z,1010.57
2022-08-14T01:02:58.808Z,1010.51
2022-08-14T01:03:58.526Z,1010.52
2022-08-14T01:04:58.533Z,1010.58
2022-08-14T01:05:58.519Z,1010.50
2022-08-14T01:06:58.529Z,1010.48
2022-08-14T01:07:58.485Z,1010.46
2022-08-14T01:08:59.515Z,1010.46
2022-08-14T01:09:58.446Z,1010.44
2022-08-14T01:10:58.488Z,1010.51
2022-08-14T01:12:03.141Z,1010.43
2022-08-14T01:12:59.556Z,1010.50
2022-08-14T01:14:01.386Z,1010.52
2022-08-14T01:14:59.535Z,1010.51
2022-08-14T01:16:02.764Z,1010.52
2022-08-14T01:16:58.365Z,1010.48
2022-08-14T01:17:58.366Z,1010.52
2022-08-14T01:19:02.122Z,1010.45
2022-08-14T01:19:58.336Z,1010.54
2022-08-14T01:20:58.341Z,1010.50
2022-08-14T01:21:58.312Z,1010.49
2022-08-14T01:22:58.319Z,1010.50
2022-08-14T01:23:58.297Z,1010.48
2022-08-14T01:24:58.304Z,1010.44
2022-08-14T01:25:58.290Z,1010.49
2022-08-14T01:26:58.259Z,1010.46
2022-08-14T01:27:58.260Z,1010.47
2022-08-14T01:28:58.244Z,1010.46
2022-08-14T01:30:03.610Z,1010.43
2022-08-14T01:30:59.231Z,1010.46
2022-08-14T01:31:58.219Z,1010.41
2022-08-14T01:32:58.204Z,1010.42
2022-08-14T01:34:00.472Z,1010.40
2022-08-14T01:35:18.699Z,1010.43
2022-08-14T01:36:04.985Z,1010.45
2022-08-14T01:36:59.167Z,1010.45
2022-08-14T01:37:58.156Z,1010.39
2022-08-14T01:38:58.433Z,1010.48
2022-08-14T01:39:58.180Z,1010.43
2022-08-14T01:40:58.113Z,1010.41
2022-08-14T01:41:58.560Z,1010.47
2022-08-14T01:42:58.091Z,1010.45
2022-08-14T01:43:58.110Z,1010.46
2022-08-14T01:44:58.093Z,1010.42
2022-08-14T01:46:06.279Z,1010.45
2022-08-14T01:47:01.239Z,1010.47
2022-08-14T01:48:03.546Z,1010.42
2022-08-14T01:48:59.035Z,1010.38
2022-08-14T01:49:59.677Z,1010.44
2022-08-14T01:50:58.026Z,1010.44
2022-08-14T01:51:58.010Z,1010.49
2022-08-14T01:53:00.508Z,1010.48
2022-08-14T01:53:57.974Z,1010.42
2022-08-14T01:54:58.615Z,1010.45
2022-08-14T01:55:57.991Z,1010.47
2022-08-14T01:56:57.949Z,1010.45
2022-08-14T01:58:01.406Z,1010.45
2022-08-14T01:58:58.941Z,1010.46
2022-08-14T01:59:57.915Z,1010.45
2022-08-14T02:00:57.909Z,1010.42
2022-08-14T02:01:59.303Z,1010.46
2022-08-14T02:02:57.892Z,1010.45
2022-08-14T02:03:57.886Z,1010.45
2022-08-14T02:04:57.964Z,1010.43
2022-08-14T02:05:57.851Z,1010.41
2022-08-14T02:06:57.839Z,1010.45
2022-08-14T02:08:09.471Z,1010.40
2022-08-14T02:08:58.822Z,1010.34
2022-08-14T02:09:57.807Z,1010.39
2022-08-14T02:10:57.798Z,1010.41
2022-08-14T02:11:57.790Z,1010.40
2022-08-14T02:12:59.448Z,1010.30
2022-08-14T02:13:57.787Z,1010.35
2022-08-14T02:15:00.577Z,1010.35
2022-08-14T02:15:57.741Z,1010.38
2022-08-14T02:16:57.736Z,1010.35
2022-08-14T02:17:57.727Z,1010.38
2022-08-14T02:18:58.091Z,1010.34
2022-08-14T02:19:57.721Z,1010.33
2022-08-14T02:20:57.695Z,1010.38
2022-08-14T02:21:57.684Z,1010.37
2022-08-14T02:22:58.669Z,1010.36
2022-08-14T02:23:57.658Z,1010.34
2022-08-14T02:24:57.662Z,1010.30
2022-08-14T02:25:57.665Z,1010.27
2022-08-14T02:28:19.002Z,1010.37
2022-08-14T02:28:21.991Z,1010.43
2022-08-14T02:28:59.723Z,1010.41
2022-08-14T02:30:00.816Z,1010.39
2022-08-14T02:30:57.607Z,1010.41
2022-08-14T02:31:57.607Z,1010.43
2022-08-14T02:32:57.562Z,1010.43
2022-08-14T02:33:57.550Z,1010.42
2022-08-14T02:34:57.547Z,1010.41
2022-08-14T02:36:05.120Z,1010.37
2022-08-14T02:37:05.157Z,1010.30
2022-08-14T02:37:58.521Z,1010.35
2022-08-14T02:38:57.494Z,1010.33
2022-08-14T02:39:57.536Z,1010.27
2022-08-14T02:40:57.513Z,1010.33
2022-08-14T02:41:57.937Z,1010.35
2022-08-14T02:42:57.832Z,1010.31
2022-08-14T02:44:00.951Z,1010.31
2022-08-14T02:44:57.439Z,1010.28
2022-08-14T02:45:57.418Z,1010.29
2022-08-14T02:47:01.182Z,1010.23
2022-08-14T02:47:57.596Z,1010.25
2022-08-14T02:49:03.871Z,1010.25
2022-08-14T02:49:58.394Z,1010.23
2022-08-14T02:50:57.364Z,1010.21
2022-08-14T02:51:57.369Z,1010.22
2022-08-14T02:53:03.069Z,1010.20
2022-08-14T02:53:58.336Z,1010.20
2022-08-14T02:54:57.327Z,1010.25
2022-08-14T02:56:03.020Z,1010.17
2022-08-14T02:57:14.049Z,1010.20
2022-08-14T02:58:03.047Z,1010.17
2022-08-14T02:59:00.399Z,1010.17
2022-08-14T02:59:57.274Z,1010.18
2022-08-14T03:00:57.403Z,1010.19
2022-08-14T03:01:57.398Z,1010.17
2022-08-14T03:02:59.375Z,1010.23
2022-08-14T03:03:57.232Z,1010.18
2022-08-14T03:04:57.226Z,1010.12
2022-08-14T03:05:57.216Z,1010.17
2022-08-14T03:07:07.184Z,1010.10
2022-08-14T03:07:58.220Z,1010.14
2022-08-14T03:08:57.175Z,1010.14
2022-08-14T03:10:25.865Z,1010.16
2022-08-14T03:10:58.153Z,1010.10
2022-08-14T03:11:57.164Z,1010.12
2022-08-14T03:12:57.133Z,1010.10
2022-08-14T03:13:59.486Z,1010.11
2022-08-14T03:14:57.134Z,1010.03
2022-08-14T03:15:57.985Z,1010.11
2022-08-14T03:16:57.093Z,1010.08
2022-08-14T03:17:58.590Z,1010.03
2022-08-14T03:18:57.073Z,1010.10
2022-08-14T03:19:57.073Z,1010.08
2022-08-14T03:20:57.074Z,1010.06
2022-08-14T03:21:57.045Z,1010.05
2022-08-14T03:22:57.029Z,1009.97
2022-08-14T03:23:57.044Z,1010.07
2022-08-14T03:24:57.041Z,1010.07
2022-08-14T03:25:57.004Z,1009.98
2022-08-14T03:26:57.762Z,1010.01
2022-08-14T03:27:58.435Z,1010.04
2022-08-14T03:28:56.972Z,1010.05
2022-08-14T03:29:56.965Z,1010.09
2022-08-14T03:30:56.962Z,1010.03
2022-08-14T03:31:56.942Z,1010.02
2022-08-14T03:32:56.945Z,1010.00
2022-08-14T03:33:56.940Z,1010.00
2022-08-14T03:34:58.490Z,1009.97
2022-08-14T03:36:05.488Z,1010.00
2022-08-14T03:37:51.346Z,1009.96
2022-08-14T03:39:12.463Z,1009.92
2022-08-14T03:39:13.384Z,1009.99
2022-08-14T03:39:57.894Z,1009.91
2022-08-14T03:40:56.841Z,1009.94
2022-08-14T03:41:59.920Z,1009.96
2022-08-14T03:42:57.829Z,1009.96
2022-08-14T03:44:00.825Z,1009.97
2022-08-14T03:45:26.592Z,1009.90
2022-08-14T03:45:57.792Z,1009.90
2022-08-14T03:46:56.797Z,1009.93
2022-08-14T03:47:58.852Z,1009.91
2022-08-14T03:48:57.790Z,1009.97
2022-08-14T03:49:58.249Z,1009.94
2022-08-14T03:50:56.756Z,1009.97
2022-08-14T03:51:57.442Z,1009.94
2022-08-14T03:52:57.525Z,1009.98
2022-08-14T03:53:56.711Z,1009.93
2022-08-14T03:54:56.710Z,1009.91
2022-08-14T03:55:56.683Z,1009.86
2022-08-14T03:56:56.693Z,1009.87
2022-08-14T03:57:56.662Z,1009.85
2022-08-14T03:58:56.657Z,1009.86
2022-08-14T03:59:56.650Z,1009.78
2022-08-14T04:00:56.709Z,1009.82
2022-08-14T04:02:01.650Z,1009.80
2022-08-14T04:02:57.627Z,1009.74
2022-08-14T04:03:56.606Z,1009.80
2022-08-14T04:04:56.594Z,1009.70
2022-08-14T04:05:57.587Z,1009.78
2022-08-14T04:06:58.838Z,1009.72
2022-08-14T04:08:08.399Z,1009.75
2022-08-14T04:08:58.079Z,1009.80
2022-08-14T04:09:56.544Z,1009.81
2022-08-14T04:10:56.531Z,1009.87
2022-08-14T04:11:57.950Z,1009.91
2022-08-14T04:12:56.511Z,1009.85
2022-08-14T04:13:57.505Z,1009.89
2022-08-14T04:14:56.510Z,1009.92
2022-08-14T04:16:02.439Z,1009.89
2022-08-14T04:16:57.465Z,1009.93
2022-08-14T04:17:56.449Z,1009.98
2022-08-14T04:18:56.449Z,1009.89
2022-08-14T04:19:56.438Z,1009.97
2022-08-14T04:20:56.437Z,1009.97
2022-08-14T04:22:03.625Z,1009.94
2022-08-14T04:22:57.397Z,1009.91
2022-08-14T04:23:57.435Z,1009.91
2022-08-14T04:24:56.385Z,1009.84
2022-08-14T04:25:56.377Z,1009.91
2022-08-14T04:26:56.379Z,1009.89
2022-08-14T04:28:02.218Z,1009.90
2022-08-14T04:29:07.107Z,1009.87
2022-08-14T04:29:57.334Z,1009.88
2022-08-14T04:30:56.323Z,1009.92
2022-08-14T04:33:00.066Z,1009.88
2022-08-14T04:33:05.349Z,1009.92
2022-08-14T04:33:57.286Z,1009.94
2022-08-14T04:34:56.281Z,1009.92
2022-08-14T04:35:57.231Z,1009.88
2022-08-14T04:36:56.254Z,1009.95
2022-08-14T04:37:56.265Z,1009.92
2022-08-14T04:38:56.250Z,1009.92
2022-08-14T04:39:57.168Z,1009.89
2022-08-14T04:40:56.211Z,1009.86
2022-08-14T04:41:56.202Z,1009.84
2022-08-14T04:42:56.189Z,1009.84
2022-08-14T04:43:56.191Z,1009.78
2022-08-14T04:45:01.000Z,1009.79
2022-08-14T04:45:57.185Z,1009.83
2022-08-14T04:46:57.751Z,1009.82
2022-08-14T04:47:56.148Z,1009.77
2022-08-14T04:48:59.787Z,1009.80
2022-08-14T04:49:56.975Z,1009.77
2022-08-14T04:50:56.130Z,1009.83
2022-08-14T04:51:56.465Z,1009.80
2022-08-14T04:52:56.095Z,1009.84
2022-08-14T04:53:56.081Z,1009.79
2022-08-14T04:54:56.083Z,1009.76
2022-08-14T04:55:56.065Z,1009.75
2022-08-14T04:56:56.063Z,1009.70
2022-08-14T04:57:56.042Z,1009.74
2022-08-14T04:58:56.039Z,1009.79
2022-08-14T04:59:56.018Z,1009.82
2022-08-14T05:00:56.004Z,1009.83
2022-08-14T05:01:57.286Z,1009.77
2022-08-14T05:02:55.995Z,1009.79
2022-08-14T05:03:55.999Z,1009.78
2022-08-14T05:04:57.439Z,1009.78
2022-08-14T05:05:55.958Z,1009.76
2022-08-14T05:06:55.937Z,1009.72
2022-08-14T05:08:01.656Z,1009.72
2022-08-14T05:09:00.056Z,1009.73
2022-08-14T05:09:55.913Z,1009.73
2022-08-14T05:10:55.911Z,1009.68
2022-08-14T05:11:55.891Z,1009.69
2022-08-14T05:13:21.148Z,1009.76
2022-08-14T05:14:17.063Z,1009.70
2022-08-14T05:14:56.959Z,1009.71
2022-08-14T05:15:55.849Z,1009.74
2022-08-14T05:16:55.838Z,1009.76
2022-08-14T05:18:03.536Z,1009.72
2022-08-14T05:19:26.646Z,1009.73
2022-08-14T05:21:04.236Z,1009.72
2022-08-14T05:21:56.461Z,1009.74
2022-08-14T05:22:01.272Z,1009.77
2022-08-14T05:22:56.773Z,1009.72
2022-08-14T05:23:55.757Z,1009.72
2022-08-14T05:24:55.904Z,1009.67
2022-08-14T05:25:55.745Z,1009.65
2022-08-14T05:27:04.391Z,1009.72
2022-08-14T05:27:55.796Z,1009.73
2022-08-14T05:28:55.736Z,1009.71
2022-08-14T05:30:04.452Z,1009.67
2022-08-14T05:30:55.733Z,1009.72
2022-08-14T05:31:57.265Z,1009.62
2022-08-14T05:32:55.708Z,1009.66
2022-08-14T05:33:56.805Z,1009.64
2022-08-14T05:34:55.697Z,1009.55
2022-08-14T05:35:55.666Z,1009.60
2022-08-14T05:36:58.965Z,1009.56
2022-08-14T05:37:56.640Z,1009.52
2022-08-14T05:38:55.600Z,1009.53
2022-08-14T05:39:55.682Z,1009.56
2022-08-14T05:40:55.701Z,1009.55
2022-08-14T05:41:55.600Z,1009.50
2022-08-14T05:42:55.624Z,1009.57
2022-08-14T05:43:55.558Z,1009.48
2022-08-14T05:44:56.074Z,1009.48
2022-08-14T05:45:55.547Z,1009.55
2022-08-14T05:46:55.535Z,1009.48
2022-08-14T05:47:55.513Z,1009.45
2022-08-14T05:48:55.518Z,1009.48
2022-08-14T05:49:55.484Z,1009.51
2022-08-14T05:50:55.478Z,1009.49
2022-08-14T05:51:55.463Z,1009.51
2022-08-14T05:52:55.722Z,1009.49
2022-08-14T05:54:00.167Z,1009.52
2022-08-14T05:54:56.441Z,1009.45
2022-08-14T05:55:55.422Z,1009.40
2022-08-14T05:56:55.429Z,1009.47
2022-08-14T05:57:57.791Z,1009.43
2022-08-14T05:58:55.405Z,1009.43
2022-08-14T05:59:55.397Z,1009.41
2022-08-14T06:00:55.379Z,1009.43
2022-08-14T06:01:55.397Z,1009.45
2022-08-14T06:02:55.369Z,1009.45
2022-08-14T06:03:55.342Z,1009.49
2022-08-14T06:04:55.326Z,1009.41
2022-08-14T06:05:55.349Z,1009.46
2022-08-14T06:06:55.308Z,1009.45
2022-08-14T06:07:55.301Z,1009.45
2022-08-14T06:08:55.295Z,1009.40
2022-08-14T06:09:55.280Z,1009.41
2022-08-14T06:10:55.270Z,1009.38
2022-08-14T06:11:55.282Z,1009.50
2022-08-14T06:12:57.052Z,1009.42
2022-08-14T06:13:55.237Z,1009.46
2022-08-14T06:14:55.230Z,1009.41
2022-08-14T06:15:55.226Z,1009.40
2022-08-14T06:16:55.209Z,1009.37
2022-08-14T06:17:59.300Z,1009.36
2022-08-14T06:18:55.192Z,1009.37
2022-08-14T06:19:55.169Z,1009.35
2022-08-14T06:20:55.163Z,1009.37
2022-08-14T06:21:59.217Z,1009.37
2022-08-14T06:22:55.146Z,1009.37
2022-08-14T06:23:55.146Z,1009.38
2022-08-14T06:24:55.116Z,1009.31
2022-08-14T06:25:55.115Z,1009.29
2022-08-14T06:26:56.776Z,1009.31
2022-08-14T06:27:56.086Z,1009.27
2022-08-14T06:28:55.082Z,1009.21
2022-08-14T06:29:55.113Z,1009.22
2022-08-14T06:30:55.059Z,1009.11
2022-08-14T06:32:00.569Z,1009.20
2022-08-14T06:32:56.453Z,1009.18
2022-08-14T06:35:02.915Z,1009.18
2022-08-14T06:35:03.877Z,1009.20
2022-08-14T06:35:56.008Z,1009.16
2022-08-14T06:36:55.002Z,1009.18
2022-08-14T06:37:55.016Z,1009.16
2022-08-14T06:38:54.969Z,1009.21
2022-08-14T06:39:55.026Z,1009.14
2022-08-14T06:40:54.960Z,1009.19
2022-08-14T06:41:58.623Z,1009.16
2022-08-14T06:42:54.936Z,1009.14
2022-08-14T06:43:54.924Z,1009.19
2022-08-14T06:44:54.914Z,1009.17
2022-08-14T06:45:54.901Z,1009.12
2022-08-14T06:46:54.893Z,1009.14
2022-08-14T06:47:54.889Z,1009.12
2022-08-14T06:48:54.880Z,1009.14
2022-08-14T06:49:58.126Z,1009.11
2022-08-14T06:50:54.890Z,1009.05
2022-08-14T06:51:54.836Z,1009.06
2022-08-14T06:52:54.831Z,1009.13
2022-08-14T06:53:54.849Z,1009.12
2022-08-14T06:54:54.804Z,1009.10
2022-08-14T06:56:00.699Z,1009.15
2022-08-14T06:56:57.097Z,1009.14
2022-08-14T06:57:54.770Z,1009.12
2022-08-14T06:58:54.771Z,1009.11
2022-08-14T06:59:54.776Z,1009.19
2022-08-14T07:00:54.782Z,1009.10
2022-08-14T07:01:56.542Z,1009.13
2022-08-14T07:02:54.725Z,1009.14
2022-08-14T07:03:54.714Z,1009.09
2022-08-14T07:04:54.719Z,1009.05
2022-08-14T07:05:55.318Z,1009.03
2022-08-14T07:06:58.509Z,1009.06
2022-08-14T07:07:54.673Z,1009.07
2022-08-14T07:08:54.659Z,1009.08
2022-08-14T07:09:54.652Z,1009.02
2022-08-14T07:10:54.653Z,1009.01
2022-08-14T07:11:56.273Z,1009.00
2022-08-14T07:13:03.937Z,1009.02
2022-08-14T07:13:55.602Z,1009.02
2022-08-14T07:15:01.035Z,1008.98
2022-08-14T07:15:55.599Z,1009.04
2022-08-14T07:16:54.590Z,1009.01
2022-08-14T07:17:54.572Z,1008.98
2022-08-14T07:18:54.551Z,1008.97
2022-08-14T07:19:54.542Z,1008.94
2022-08-14T07:20:54.548Z,1008.97
2022-08-14T07:21:54.542Z,1008.95
2022-08-14T07:22:56.981Z,1008.96
2022-08-14T07:23:54.510Z,1008.97
2022-08-14T07:24:54.489Z,1008.98
2022-08-14T07:25:54.480Z,1008.95
2022-08-14T07:26:54.494Z,1008.95
2022-08-14T07:27:54.468Z,1008.97
2022-08-14T07:28:54.460Z,1008.97
2022-08-14T07:29:54.454Z,1008.97
2022-08-14T07:30:54.442Z,1008.99
2022-08-14T07:31:54.423Z,1009.03
2022-08-14T07:32:54.429Z,1008.98
2022-08-14T07:33:54.403Z,1009.02
2022-08-14T07:34:54.391Z,1008.98
2022-08-14T07:35:58.622Z,1009.01
2022-08-14T07:37:00.740Z,1008.98
2022-08-14T07:37:55.375Z,1008.95
2022-08-14T07:38:54.361Z,1008.89
2022-08-14T07:39:54.402Z,1008.95
2022-08-14T07:40:54.329Z,1008.89
2022-08-14T07:41:54.339Z,1008.89
2022-08-14T07:42:54.330Z,1008.95
2022-08-14T07:43:55.802Z,1008.91
2022-08-14T07:44:54.306Z,1008.93
2022-08-14T07:45:54.290Z,1008.88
2022-08-14T07:46:54.277Z,1008.89
2022-08-14T07:47:54.277Z,1008.91
2022-08-14T07:48:54.258Z,1008.91
2022-08-14T07:49:55.541Z,1008.89
2022-08-14T07:50:59.495Z,1008.88
2022-08-14T07:51:55.229Z,1008.79
2022-08-14T07:52:54.209Z,1008.81
2022-08-14T07:53:57.116Z,1008.84
2022-08-14T07:54:54.211Z,1008.81
2022-08-14T07:56:00.263Z,1008.79
2022-08-14T07:56:56.799Z,1008.83
2022-08-14T07:57:54.170Z,1008.85
2022-08-14T07:58:54.151Z,1008.80
2022-08-14T07:59:54.147Z,1008.82
2022-08-14T08:00:56.394Z,1008.85
2022-08-14T08:01:54.132Z,1008.82
2022-08-14T08:02:55.831Z,1008.79
2022-08-14T08:03:57.349Z,1008.77
2022-08-14T08:04:59.263Z,1008.81
2022-08-14T08:05:54.094Z,1008.80
2022-08-14T08:06:54.087Z,1008.78
2022-08-14T08:07:54.067Z,1008.75
2022-08-14T08:09:01.494Z,1008.72
2022-08-14T08:09:55.056Z,1008.74
2022-08-14T08:11:03.097Z,1008.73
2022-08-14T08:11:57.333Z,1008.73
2022-08-14T08:12:54.011Z,1008.75
2022-08-14T08:13:54.484Z,1008.73
2022-08-14T08:14:55.674Z,1008.77
2022-08-14T08:15:53.995Z,1008.82
2022-08-14T08:16:53.971Z,1008.80
2022-08-14T08:18:01.134Z,1008.82
2022-08-14T08:18:59.244Z,1008.87
2022-08-14T08:19:54.932Z,1008.82
2022-08-14T08:20:53.938Z,1008.80
2022-08-14T08:21:54.916Z,1008.83
2022-08-14T08:22:55.869Z,1008.80
2022-08-14T08:23:53.899Z,1008.82
2022-08-14T08:24:53.882Z,1008.84
2022-08-14T08:25:53.868Z,1008.87
2022-08-14T08:26:53.877Z,1008.85
2022-08-14T08:27:53.856Z,1008.82
2022-08-14T08:28:53.844Z,1008.80
2022-08-14T08:29:53.873Z,1008.76
2022-08-14T08:30:53.853Z,1008.77
2022-08-14T08:31:53.824Z,1008.79
2022-08-14T08:32:53.795Z,1008.80
2022-08-14T08:33:53.790Z,1008.81
2022-08-14T08:34:53.780Z,1008.75
2022-08-14T08:35:53.769Z,1008.73
2022-08-14T08:36:53.770Z,1008.75
2022-08-14T08:38:01.386Z,1008.74
2022-08-14T08:39:18.665Z,1008.70
2022-08-14T08:40:03.248Z,1008.70
2022-08-14T08:40:54.839Z,1008.73
2022-08-14T08:41:54.726Z,1008.71
2022-08-14T08:42:53.714Z,1008.67
2022-08-14T08:43:53.695Z,1008.72
2022-08-14T08:44:53.673Z,1008.66
2022-08-14T08:45:53.674Z,1008.70
2022-08-14T08:46:53.653Z,1008.61
2022-08-14T08:47:53.661Z,1008.65
2022-08-14T08:49:23.167Z,1008.63
2022-08-14T08:50:31.780Z,1008.72
2022-08-14T08:51:23.046Z,1008.63
2022-08-14T08:52:24.933Z,1008.69
2022-08-14T08:53:23.010Z,1008.63
2022-08-14T08:54:26.616Z,1008.60
2022-08-14T08:55:24.000Z,1008.56
2022-08-14T08:56:30.315Z,1008.54
2022-08-14T08:57:24.046Z,1008.53
2022-08-14T08:58:25.419Z,1008.53
2022-08-14T08:59:31.041Z,1008.54
2022-08-14T09:00:25.492Z,1008.48
2022-08-14T09:01:22.965Z,1008.50
2022-08-14T09:02:22.929Z,1008.47
2022-08-14T09:03:22.919Z,1008.45
2022-08-14T09:04:22.892Z,1008.44
2022-08-14T09:05:22.963Z,1008.37
2022-08-14T09:07:01.451Z,1008.45
2022-08-14T09:07:23.855Z,1008.42
2022-08-14T09:08:30.893Z,1008.39
2022-08-14T09:09:23.848Z,1008.40
2022-08-14T09:10:22.831Z,1008.44
2022-08-14T09:11:22.833Z,1008.45
2022-08-14T09:12:22.838Z,1008.43
2022-08-14T09:13:22.816Z,1008.35
2022-08-14T09:14:22.800Z,1008.37
2022-08-14T09:15:22.789Z,1008.32
2022-08-14T09:16:23.535Z,1008.36
2022-08-14T09:17:25.963Z,1008.31
2022-08-14T09:18:22.807Z,1008.32
2022-08-14T09:19:22.740Z,1008.29
2022-08-14T09:20:29.395Z,1008.33
2022-08-14T09:21:23.996Z,1008.37
2022-08-14T09:22:35.603Z,1008.36
2022-08-14T09:23:27.325Z,1008.33
2022-08-14T09:24:29.133Z,1008.39
2022-08-14T09:26:01.397Z,1008.38
2022-08-14T09:26:23.657Z,1008.38
2022-08-14T09:27:23.691Z,1008.36
2022-08-14T09:28:22.656Z,1008.31
2022-08-14T09:29:23.515Z,1008.37
2022-08-14T09:30:32.461Z,1008.31
2022-08-14T09:31:23.653Z,1008.29
2022-08-14T09:32:57.833Z,1008.26
2022-08-14T09:33:23.600Z,1008.33
2022-08-14T09:34:27.896Z,1008.26
2022-08-14T09:35:23.602Z,1008.20
2022-08-14T09:36:22.575Z,1008.24
2022-08-14T09:37:22.546Z,1008.24
2022-08-14T09:38:26.178Z,1008.19
2022-08-14T09:39:23.602Z,1008.19
2022-08-14T09:40:22.657Z,1008.12
2022-08-14T09:41:22.558Z,1008.16
2022-08-14T09:42:32.931Z,1008.09
2022-08-14T09:43:23.525Z,1008.06
2022-08-14T09:44:22.552Z,1008.04
2022-08-14T09:45:22.502Z,1008.04
2022-08-14T09:46:25.803Z,1008.07
2022-08-14T09:47:22.449Z,1008.03
2022-08-14T09:48:30.253Z,1008.04
2022-08-14T09:49:23.490Z,1008.03
2022-08-14T09:50:25.717Z,1008.04
2022-08-14T09:51:22.464Z,1008.03
2022-08-14T09:52:32.721Z,1007.97
2022-08-14T09:53:23.379Z,1008.03
2022-08-14T09:54:23.993Z,1007.97
2022-08-14T09:55:22.350Z,1008.02
2022-08-14T09:56:30.479Z,1007.94
2022-08-14T09:57:23.338Z,1007.98
2022-08-14T09:58:23.146Z,1007.91
2022-08-14T09:59:22.312Z,1007.92
2022-08-14T10:00:30.268Z,1007.94
2022-08-14T10:01:24.783Z,1007.93
2022-08-14T10:02:22.368Z,1007.90
2022-08-14T10:03:22.276Z,1007.87
2022-08-14T10:04:34.355Z,1007.82
2022-08-14T10:05:23.265Z,1007.79
2022-08-14T10:06:22.240Z,1007.84
2022-08-14T10:07:22.232Z,1007.81
2022-08-14T10:08:26.164Z,1007.78
2022-08-14T10:09:22.204Z,1007.80
2022-08-14T10:10:23.628Z,1007.81
2022-08-14T10:11:23.568Z,1007.81
2022-08-14T10:12:28.720Z,1007.84
2022-08-14T10:13:23.647Z,1007.78
2022-08-14T10:14:35.154Z,1007.77
2022-08-14T10:15:23.204Z,1007.79
2022-08-14T10:16:27.622Z,1007.73
2022-08-14T10:17:23.122Z,1007.72
2022-08-14T10:18:22.123Z,1007.66
2022-08-14T10:19:22.122Z,1007.68
2022-08-14T10:20:40.658Z,1007.71
2022-08-14T10:21:23.090Z,1007.62
2022-08-14T10:23:14.934Z,1007.57
2022-08-14T10:23:23.417Z,1007.53
2022-08-14T10:24:22.055Z,1007.62
2022-08-14T10:25:22.635Z,1007.58
2022-08-14T10:26:23.148Z,1007.57
2022-08-14T10:27:23.038Z,1007.51
2022-08-14T10:28:39.236Z,1007.51
2022-08-14T10:29:23.689Z,1007.53
2022-08-14T10:30:22.602Z,1007.53
2022-08-14T10:31:25.418Z,1007.46
2022-08-14T10:32:29.035Z,1007.48
2022-08-14T10:33:22.980Z,1007.43
2022-08-14T10:34:29.050Z,1007.38
2022-08-14T10:35:23.155Z,1007.37
2022-08-14T10:36:34.940Z,1007.35
2022-08-14T10:37:23.762Z,1007.32
2022-08-14T10:38:22.925Z,1007.36
2022-08-14T10:39:21.956Z,1007.31
2022-08-14T10:40:44.290Z,1007.29
2022-08-14T10:41:22.886Z,1007.28
2022-08-14T10:42:22.869Z,1007.29
2022-08-14T10:43:23.196Z,1007.32
2022-08-14T10:44:22.003Z,1007.31
2022-08-14T10:45:22.022Z,1007.28
2022-08-14T10:47:40.743Z,1007.25
2022-08-14T10:47:41.287Z,1007.17
2022-08-14T10:48:24.343Z,1007.22
2022-08-14T10:49:23.347Z,1007.24
2022-08-14T10:50:21.793Z,1007.25
2022-08-14T10:51:21.773Z,1007.20
2022-08-14T10:52:21.999Z,1007.22
2022-08-14T10:53:21.771Z,1007.21
2022-08-14T10:54:35.825Z,1007.30
2022-08-14T10:55:22.743Z,1007.21
2022-08-14T10:56:34.063Z,1007.26
2022-08-14T10:57:22.711Z,1007.17
2022-08-14T10:58:21.707Z,1007.22
2022-08-14T10:59:21.712Z,1007.14
2022-08-14T11:00:29.797Z,1007.15
2022-08-14T11:01:22.667Z,1007.14
2022-08-14T11:02:35.874Z,1007.16
2022-08-14T11:03:36.139Z,1007.15
2022-08-14T11:04:26.215Z,1007.21
2022-08-14T11:05:21.635Z,1007.15
2022-08-14T11:06:21.621Z,1007.08
2022-08-14T11:07:21.646Z,1007.12
2022-08-14T11:08:21.613Z,1007.09
2022-08-14T11:09:21.583Z,1007.08
2022-08-14T11:10:21.572Z,1007.03
2022-08-14T11:11:21.570Z,1007.00
2022-08-14T11:12:39.982Z,1006.97
2022-08-14T11:13:24.173Z,1006.90
2022-08-14T11:14:22.798Z,1006.93
2022-08-14T11:15:21.521Z,1006.98
2022-08-14T11:16:21.519Z,1006.96
2022-08-14T11:17:21.875Z,1006.97
2022-08-14T11:18:30.062Z,1006.94
2022-08-14T11:19:24.302Z,1006.91
2022-08-14T11:20:21.481Z,1006.94
2022-08-14T11:21:21.494Z,1006.93
2022-08-14T11:22:52.764Z,1006.93
2022-08-14T11:23:22.448Z,1006.98
2022-08-14T11:24:50.478Z,1007.01
2022-08-14T11:25:22.428Z,1006.99
2022-08-14T11:26:21.418Z,1006.99
2022-08-14T11:27:23.722Z,1006.94
2022-08-14T11:28:48.144Z,1006.93
2022-08-14T11:29:22.379Z,1006.92
2022-08-14T11:30:51.406Z,1007.01
2022-08-14T11:31:22.433Z,1006.95
2022-08-14T11:32:29.018Z,1006.95
2022-08-14T11:33:21.391Z,1006.97
2022-08-14T11:34:31.973Z,1006.92
2022-08-14T11:35:21.331Z,1006.89
2022-08-14T11:36:21.318Z,1006.88
2022-08-14T11:37:33.906Z,1006.86
2022-08-14T11:38:22.309Z,1006.80
2022-08-14T11:39:33.703Z,1006.81
2022-08-14T11:40:24.360Z,1006.77
2022-08-14T11:41:22.283Z,1006.77
2022-08-14T11:42:57.192Z,1006.82
2022-08-14T11:43:29.129Z,1006.79
2022-08-14T11:44:45.814Z,1006.76
2022-08-14T11:45:23.128Z,1006.83
2022-08-14T11:46:30.247Z,1006.73
2022-08-14T11:47:22.239Z,1006.83
2022-08-14T11:49:04.168Z,1006.81
2022-08-14T11:49:22.284Z,1006.76
2022-08-14T11:50:33.515Z,1006.73
2022-08-14T11:51:24.192Z,1006.64
2022-08-14T11:52:21.587Z,1006.70
2022-08-14T11:53:21.144Z,1006.67
2022-08-14T11:54:33.942Z,1006.67
2022-08-14T11:55:25.501Z,1006.65
2022-08-14T11:56:25.320Z,1006.68
2022-08-14T11:57:22.900Z,1006.65
2022-08-14T11:58:24.399Z,1006.62
2022-08-14T11:59:26.209Z,1006.63
2022-08-14T12:00:22.085Z,1006.53
2022-08-14T12:01:22.052Z,1006.53
2022-08-14T12:03:01.213Z,1006.54
2022-08-14T12:03:27.053Z,1006.50
2022-08-14T12:04:33.431Z,1006.52
2022-08-14T12:05:22.031Z,1006.40
2022-08-14T12:06:28.105Z,1006.43